sensor_id;sensor_type;location;lat;lon;timestamp;P1;durP1;ratioP1;P2;durP2;ratioP2
55346;SDS011;41218;55.700;38.270;2023-03-21T00:02:42;14.40;;;5.97;;
55346;SDS011;41218;55.700;38.270;2023-03-21T00:07:43;11.97;;;5.83;;
55346;SDS011;41218;55.700;38.270;2023-03-21T00:12:43;12.10;;;5.63;;
55346;SDS011;41218;55.700;38.270;2023-03-21T00:17:44;15.47;;;5.53;;
55346;SDS011;41218;55.700;38.270;2023-03-21T00:22:45;17.83;;;5.55;;
55346;SDS011;41218;55.700;38.270;2023-03-21T00:27:45;14.30;;;5.47;;
55346;SDS011;41218;55.700;38.270;2023-03-21T00:32:46;11.93;;;5.60;;
55346;SDS011;41218;55.700;38.270;2023-03-21T00:37:46;13.43;;;5.33;;
55346;SDS011;41218;55.700;38.270;2023-03-21T00:42:47;13.50;;;4.87;;
55346;SDS011;41218;55.700;38.270;2023-03-21T00:47:47;9.63;;;5.07;;
55346;SDS011;41218;55.700;38.270;2023-03-21T00:52:48;12.30;;;5.40;;
55346;SDS011;41218;55.700;38.270;2023-03-21T00:57:49;13.20;;;5.30;;
55346;SDS011;41218;55.700;38.270;2023-03-21T01:02:49;10.80;;;5.23;;
55346;SDS011;41218;55.700;38.270;2023-03-21T01:07:56;13.43;;;5.05;;
55346;SDS011;41218;55.700;38.270;2023-03-21T01:12:56;11.43;;;5.33;;
55346;SDS011;41218;55.700;38.270;2023-03-21T01:17:57;12.87;;;5.47;;
55346;SDS011;41218;55.700;38.270;2023-03-21T01:22:57;13.10;;;5.43;;
55346;SDS011;41218;55.700;38.270;2023-03-21T01:27:58;13.47;;;5.73;;
55346;SDS011;41218;55.700;38.270;2023-03-21T01:32:58;12.27;;;5.60;;
55346;SDS011;41218;55.700;38.270;2023-03-21T01:37:59;13.17;;;5.80;;
55346;SDS011;41218;55.700;38.270;2023-03-21T01:42:59;15.50;;;5.97;;
55346;SDS011;41218;55.700;38.270;2023-03-21T01:48:00;14.10;;;5.93;;
55346;SDS011;41218;55.700;38.270;2023-03-21T01:53:01;13.23;;;5.40;;
55346;SDS011;41218;55.700;38.270;2023-03-21T01:58:03;12.57;;;5.78;;
55346;SDS011;41218;55.700;38.270;2023-03-21T02:03:05;11.65;;;5.75;;
55346;SDS011;41218;55.700;38.270;2023-03-21T02:08:10;12.43;;;5.78;;
55346;SDS011;41218;55.700;38.270;2023-03-21T02:13:12;12.32;;;5.32;;
55346;SDS011;41218;55.700;38.270;2023-03-21T02:18:18;10.57;;;5.03;;
55346;SDS011;41218;55.700;38.270;2023-03-21T02:28:38;12.40;;;5.43;;
55346;SDS011;41218;55.700;38.270;2023-03-21T02:33:49;14.32;;;5.80;;
55346;SDS011;41218;55.700;38.270;2023-03-21T02:39:26;12.10;;;5.28;;
55346;SDS011;41218;55.700;38.270;2023-03-21T02:50:20;13.57;;;5.20;;
55346;SDS011;41218;55.700;38.270;2023-03-21T02:55:26;8.27;;;4.70;;
55346;SDS011;41218;55.700;38.270;2023-03-21T03:00:29;10.15;;;4.72;;
55346;SDS011;41218;55.700;38.270;2023-03-21T03:05:33;9.43;;;4.80;;
55346;SDS011;41218;55.700;38.270;2023-03-21T03:10:38;11.32;;;4.75;;
55346;SDS011;41218;55.700;38.270;2023-03-21T03:26:37;12.52;;;5.35;;
55346;SDS011;41218;55.700;38.270;2023-03-21T03:31:57;9.60;;;4.60;;
55346;SDS011;41218;55.700;38.270;2023-03-21T03:37:02;9.52;;;4.85;;
55346;SDS011;41218;55.700;38.270;2023-03-21T03:42:12;9.38;;;4.43;;
55346;SDS011;41218;55.700;38.270;2023-03-21T03:47:24;11.73;;;4.93;;
55346;SDS011;41218;55.700;38.270;2023-03-21T03:57:30;12.07;;;5.30;;
55346;SDS011;41218;55.700;38.270;2023-03-21T04:02:31;11.13;;;5.32;;
55346;SDS011;41218;55.700;38.270;2023-03-21T04:07:32;14.03;;;5.37;;
55346;SDS011;41218;55.700;38.270;2023-03-21T04:12:32;10.97;;;4.90;;
55346;SDS011;41218;55.700;38.270;2023-03-21T04:17:33;14.10;;;5.37;;
55346;SDS011;41218;55.700;38.270;2023-03-21T04:22:33;10.87;;;5.10;;
55346;SDS011;41218;55.700;38.270;2023-03-21T04:27:34;14.13;;;5.70;;
55346;SDS011;41218;55.700;38.270;2023-03-21T04:32:35;10.32;;;4.60;;
55346;SDS011;41218;55.700;38.270;2023-03-21T04:37:38;13.40;;;5.20;;
55346;SDS011;41218;55.700;38.270;2023-03-21T04:42:39;11.90;;;5.07;;
55346;SDS011;41218;55.700;38.270;2023-03-21T04:47:39;10.40;;;5.43;;
55346;SDS011;41218;55.700;38.270;2023-03-21T04:52:40;13.48;;;5.47;;
55346;SDS011;41218;55.700;38.270;2023-03-21T04:57:41;13.97;;;6.10;;
55346;SDS011;41218;55.700;38.270;2023-03-21T05:02:41;16.37;;;6.00;;
55346;SDS011;41218;55.700;38.270;2023-03-21T05:07:42;14.60;;;6.43;;
55346;SDS011;41218;55.700;38.270;2023-03-21T05:12:42;15.00;;;6.77;;
55346;SDS011;41218;55.700;38.270;2023-03-21T05:17:43;12.90;;;5.87;;
55346;SDS011;41218;55.700;38.270;2023-03-21T05:22:43;13.60;;;5.33;;
55346;SDS011;41218;55.700;38.270;2023-03-21T05:27:45;17.08;;;7.00;;
55346;SDS011;41218;55.700;38.270;2023-03-21T05:32:53;16.55;;;6.63;;
55346;SDS011;41218;55.700;38.270;2023-03-21T05:37:54;14.97;;;5.93;;
55346;SDS011;41218;55.700;38.270;2023-03-21T05:42:54;17.25;;;7.00;;
55346;SDS011;41218;55.700;38.270;2023-03-21T05:47:55;20.00;;;7.20;;
55346;SDS011;41218;55.700;38.270;2023-03-21T05:52:56;20.87;;;7.10;;
55346;SDS011;41218;55.700;38.270;2023-03-21T05:57:57;18.37;;;7.40;;
55346;SDS011;41218;55.700;38.270;2023-03-21T06:02:57;18.57;;;6.87;;
55346;SDS011;41218;55.700;38.270;2023-03-21T06:08:00;20.15;;;7.25;;
55346;SDS011;41218;55.700;38.270;2023-03-21T06:13:01;15.97;;;7.10;;
55346;SDS011;41218;55.700;38.270;2023-03-21T06:18:01;16.97;;;7.23;;
55346;SDS011;41218;55.700;38.270;2023-03-21T06:23:02;21.87;;;7.60;;
55346;SDS011;41218;55.700;38.270;2023-03-21T06:28:02;17.53;;;7.83;;
55346;SDS011;41218;55.700;38.270;2023-03-21T06:33:03;18.17;;;7.93;;
55346;SDS011;41218;55.700;38.270;2023-03-21T06:38:03;19.03;;;7.17;;
55346;SDS011;41218;55.700;38.270;2023-03-21T06:43:04;21.50;;;8.27;;
55346;SDS011;41218;55.700;38.270;2023-03-21T06:48:05;19.30;;;7.53;;
55346;SDS011;41218;55.700;38.270;2023-03-21T06:53:05;19.43;;;8.37;;
55346;SDS011;41218;55.700;38.270;2023-03-21T06:58:06;16.50;;;7.93;;
55346;SDS011;41218;55.700;38.270;2023-03-21T07:03:07;24.10;;;7.60;;
55346;SDS011;41218;55.700;38.270;2023-03-21T07:08:08;17.47;;;7.33;;
55346;SDS011;41218;55.700;38.270;2023-03-21T07:13:11;14.88;;;7.00;;
55346;SDS011;41218;55.700;38.270;2023-03-21T07:18:12;16.13;;;7.13;;
55346;SDS011;41218;55.700;38.270;2023-03-21T07:23:12;14.30;;;6.63;;
55346;SDS011;41218;55.700;38.270;2023-03-21T07:28:13;15.03;;;6.67;;
55346;SDS011;41218;55.700;38.270;2023-03-21T07:33:15;12.02;;;5.75;;
55346;SDS011;41218;55.700;38.270;2023-03-21T07:38:16;13.50;;;6.30;;
55346;SDS011;41218;55.700;38.270;2023-03-21T07:43:17;13.15;;;6.18;;
55346;SDS011;41218;55.700;38.270;2023-03-21T07:48:19;13.57;;;5.72;;
55346;SDS011;41218;55.700;38.270;2023-03-21T07:53:20;18.33;;;7.03;;
55346;SDS011;41218;55.700;38.270;2023-03-21T07:58:21;23.03;;;7.53;;
55346;SDS011;41218;55.700;38.270;2023-03-21T08:03:22;15.82;;;7.28;;
55346;SDS011;41218;55.700;38.270;2023-03-21T08:08:25;16.80;;;7.47;;
55346;SDS011;41218;55.700;38.270;2023-03-21T08:13:25;18.37;;;7.70;;
55346;SDS011;41218;55.700;38.270;2023-03-21T08:18:26;14.77;;;7.65;;
55346;SDS011;41218;55.700;38.270;2023-03-21T08:23:27;22.53;;;8.07;;
55346;SDS011;41218;55.700;38.270;2023-03-21T08:28:28;19.17;;;7.13;;
55346;SDS011;41218;55.700;38.270;2023-03-21T08:33:29;17.13;;;7.67;;
55346;SDS011;41218;55.700;38.270;2023-03-21T08:38:29;17.50;;;8.33;;
55346;SDS011;41218;55.700;38.270;2023-03-21T08:43:32;20.20;;;7.80;;
55346;SDS011;41218;55.700;38.270;2023-03-21T08:48:33;15.87;;;7.30;;
55346;SDS011;41218;55.700;38.270;2023-03-21T08:53:33;17.97;;;7.57;;
55346;SDS011;41218;55.700;38.270;2023-03-21T08:58:34;13.63;;;6.93;;
55346;SDS011;41218;55.700;38.270;2023-03-21T09:03:38;17.35;;;7.70;;
55346;SDS011;41218;55.700;38.270;2023-03-21T09:08:39;18.90;;;8.00;;
55346;SDS011;41218;55.700;38.270;2023-03-21T09:13:40;17.88;;;7.72;;
55346;SDS011;41218;55.700;38.270;2023-03-21T09:18:41;18.47;;;7.17;;
55346;SDS011;41218;55.700;38.270;2023-03-21T09:23:46;17.27;;;8.27;;
55346;SDS011;41218;55.700;38.270;2023-03-21T09:28:52;22.83;;;8.27;;
55346;SDS011;41218;55.700;38.270;2023-03-21T09:33:53;20.30;;;8.20;;
55346;SDS011;41218;55.700;38.270;2023-03-21T09:38:57;17.58;;;8.00;;
55346;SDS011;41218;55.700;38.270;2023-03-21T09:49:15;17.02;;;7.38;;
55346;SDS011;41218;55.700;38.270;2023-03-21T09:54:22;18.15;;;7.40;;
55346;SDS011;41218;55.700;38.270;2023-03-21T09:59:28;19.35;;;6.72;;
55346;SDS011;41218;55.700;38.270;2023-03-21T10:04:34;12.52;;;6.57;;
55346;SDS011;41218;55.700;38.270;2023-03-21T10:09:36;12.27;;;5.97;;
55346;SDS011;41218;55.700;38.270;2023-03-21T10:14:45;11.93;;;5.88;;
55346;SDS011;41218;55.700;38.270;2023-03-21T10:19:50;9.15;;;3.45;;
55346;SDS011;41218;55.700;38.270;2023-03-21T10:24:58;14.43;;;6.03;;
55346;SDS011;41218;55.700;38.270;2023-03-21T10:29:58;14.30;;;6.40;;
55346;SDS011;41218;55.700;38.270;2023-03-21T10:40:03;10.68;;;5.80;;
55346;SDS011;41218;55.700;38.270;2023-03-21T10:45:05;11.65;;;5.22;;
55346;SDS011;41218;55.700;38.270;2023-03-21T10:50:15;10.70;;;5.55;;
55346;SDS011;41218;55.700;38.270;2023-03-21T10:55:24;12.07;;;5.25;;
55346;SDS011;41218;55.700;38.270;2023-03-21T11:00:29;11.32;;;5.25;;
55346;SDS011;41218;55.700;38.270;2023-03-21T11:05:37;12.15;;;5.38;;
55346;SDS011;41218;55.700;38.270;2023-03-21T11:16:11;11.48;;;5.80;;
55346;SDS011;41218;55.700;38.270;2023-03-21T11:21:18;10.75;;;5.45;;
55346;SDS011;41218;55.700;38.270;2023-03-21T11:26:24;12.40;;;5.10;;
55346;SDS011;41218;55.700;38.270;2023-03-21T11:31:36;9.75;;;4.60;;
55346;SDS011;41218;55.700;38.270;2023-03-21T11:36:38;10.65;;;5.10;;
55346;SDS011;41218;55.700;38.270;2023-03-21T11:41:39;10.97;;;4.37;;
55346;SDS011;41218;55.700;38.270;2023-03-21T11:46:41;8.75;;;4.15;;
55346;SDS011;41218;55.700;38.270;2023-03-21T12:24:11;10.88;;;3.80;;
55346;SDS011;41218;55.700;38.270;2023-03-21T12:39:38;9.77;;;4.57;;
55346;SDS011;41218;55.700;38.270;2023-03-21T12:44:40;6.75;;;3.75;;
55346;SDS011;41218;55.700;38.270;2023-03-21T12:55:18;8.80;;;3.97;;
55346;SDS011;41218;55.700;38.270;2023-03-21T13:00:26;8.77;;;3.80;;
55346;SDS011;41218;55.700;38.270;2023-03-21T13:05:34;6.68;;;3.60;;
55346;SDS011;41218;55.700;38.270;2023-03-21T13:10:40;4.15;;;2.90;;
55346;SDS011;41218;55.700;38.270;2023-03-21T13:15:48;7.22;;;3.30;;
55346;SDS011;41218;55.700;38.270;2023-03-21T13:20:59;7.80;;;3.67;;
55346;SDS011;41218;55.700;38.270;2023-03-21T13:26:10;10.38;;;3.25;;
55346;SDS011;41218;55.700;38.270;2023-03-21T13:31:22;6.22;;;3.30;;
55346;SDS011;41218;55.700;38.270;2023-03-21T13:36:27;7.45;;;3.53;;
55346;SDS011;41218;55.700;38.270;2023-03-21T13:41:34;6.82;;;3.17;;
55346;SDS011;41218;55.700;38.270;2023-03-21T13:46:50;6.80;;;3.13;;
55346;SDS011;41218;55.700;38.270;2023-03-21T13:51:55;4.72;;;2.35;;
55346;SDS011;41218;55.700;38.270;2023-03-21T13:56:59;5.30;;;2.80;;
55346;SDS011;41218;55.700;38.270;2023-03-21T14:02:16;5.13;;;2.47;;
55346;SDS011;41218;55.700;38.270;2023-03-21T14:07:29;7.05;;;3.17;;
55346;SDS011;41218;55.700;38.270;2023-03-21T14:12:35;4.57;;;2.65;;
55346;SDS011;41218;55.700;38.270;2023-03-21T14:17:47;5.05;;;2.80;;
55346;SDS011;41218;55.700;38.270;2023-03-21T14:22:49;6.20;;;2.55;;
55346;SDS011;41218;55.700;38.270;2023-03-21T14:27:52;6.43;;;3.10;;
55346;SDS011;41218;55.700;38.270;2023-03-21T14:32:59;6.72;;;3.00;;
55346;SDS011;41218;55.700;38.270;2023-03-21T14:38:04;7.05;;;2.88;;
55346;SDS011;41218;55.700;38.270;2023-03-21T14:43:09;5.70;;;2.58;;
55346;SDS011;41218;55.700;38.270;2023-03-21T14:48:14;5.15;;;2.88;;
55346;SDS011;41218;55.700;38.270;2023-03-21T14:53:20;5.45;;;2.58;;
55346;SDS011;41218;55.700;38.270;2023-03-21T14:58:24;6.38;;;2.50;;
55346;SDS011;41218;55.700;38.270;2023-03-21T15:03:25;4.63;;;2.38;;
55346;SDS011;41218;55.700;38.270;2023-03-21T15:08:27;7.55;;;2.20;;
55346;SDS011;41218;55.700;38.270;2023-03-21T15:18:31;8.35;;;2.55;;
55346;SDS011;41218;55.700;38.270;2023-03-21T15:23:43;6.97;;;2.70;;
55346;SDS011;41218;55.700;38.270;2023-03-21T15:28:47;5.45;;;2.53;;
55346;SDS011;41218;55.700;38.270;2023-03-21T15:33:51;6.22;;;2.30;;
55346;SDS011;41218;55.700;38.270;2023-03-21T15:38:53;7.20;;;2.38;;
55346;SDS011;41218;55.700;38.270;2023-03-21T15:54:10;3.75;;;2.08;;
55346;SDS011;41218;55.700;38.270;2023-03-21T15:59:14;8.40;;;2.90;;
55346;SDS011;41218;55.700;38.270;2023-03-21T16:04:18;5.45;;;2.40;;
55346;SDS011;41218;55.700;38.270;2023-03-21T16:09:19;4.90;;;2.42;;
55346;SDS011;41218;55.700;38.270;2023-03-21T16:14:23;4.93;;;2.92;;
55346;SDS011;41218;55.700;38.270;2023-03-21T16:19:26;4.75;;;2.50;;
55346;SDS011;41218;55.700;38.270;2023-03-21T16:24:28;6.13;;;2.83;;
55346;SDS011;41218;55.700;38.270;2023-03-21T16:29:29;6.37;;;3.00;;
55346;SDS011;41218;55.700;38.270;2023-03-21T16:34:30;7.57;;;3.38;;
55346;SDS011;41218;55.700;38.270;2023-03-21T16:39:31;8.43;;;3.50;;
55346;SDS011;41218;55.700;38.270;2023-03-21T16:44:31;6.90;;;3.93;;
55346;SDS011;41218;55.700;38.270;2023-03-21T16:49:32;9.23;;;4.22;;
55346;SDS011;41218;55.700;38.270;2023-03-21T16:54:33;9.30;;;3.57;;
55346;SDS011;41218;55.700;38.270;2023-03-21T16:59:34;7.73;;;3.80;;
55346;SDS011;41218;55.700;38.270;2023-03-21T17:04:34;8.25;;;3.97;;
55346;SDS011;41218;55.700;38.270;2023-03-21T17:09:36;7.80;;;4.38;;
55346;SDS011;41218;55.700;38.270;2023-03-21T17:19:38;7.57;;;3.67;;
55346;SDS011;41218;55.700;38.270;2023-03-21T17:24:39;7.13;;;3.30;;
55346;SDS011;41218;55.700;38.270;2023-03-21T17:29:39;5.85;;;3.60;;
55346;SDS011;41218;55.700;38.270;2023-03-21T17:34:40;7.73;;;3.40;;
55346;SDS011;41218;55.700;38.270;2023-03-21T17:39:40;8.07;;;3.80;;
55346;SDS011;41218;55.700;38.270;2023-03-21T17:44:41;8.00;;;3.60;;
55346;SDS011;41218;55.700;38.270;2023-03-21T17:49:42;8.33;;;4.07;;
55346;SDS011;41218;55.700;38.270;2023-03-21T17:54:43;8.67;;;4.13;;
55346;SDS011;41218;55.700;38.270;2023-03-21T17:59:43;8.97;;;4.40;;
55346;SDS011;41218;55.700;38.270;2023-03-21T18:04:44;14.70;;;5.00;;
55346;SDS011;41218;55.700;38.270;2023-03-21T18:09:45;11.07;;;4.97;;
55346;SDS011;41218;55.700;38.270;2023-03-21T18:14:45;11.27;;;4.68;;
55346;SDS011;41218;55.700;38.270;2023-03-21T18:19:46;11.30;;;4.97;;
55346;SDS011;41218;55.700;38.270;2023-03-21T18:24:47;10.03;;;4.33;;
55346;SDS011;41218;55.700;38.270;2023-03-21T18:29:48;15.67;;;4.80;;
55346;SDS011;41218;55.700;38.270;2023-03-21T18:34:48;12.05;;;4.63;;
55346;SDS011;41218;55.700;38.270;2023-03-21T18:39:49;11.30;;;4.90;;
55346;SDS011;41218;55.700;38.270;2023-03-21T18:44:50;9.43;;;4.43;;
55346;SDS011;41218;55.700;38.270;2023-03-21T18:49:50;11.47;;;4.40;;
55346;SDS011;41218;55.700;38.270;2023-03-21T18:54:51;10.65;;;4.45;;
55346;SDS011;41218;55.700;38.270;2023-03-21T18:59:53;9.75;;;4.72;;
55346;SDS011;41218;55.700;38.270;2023-03-21T19:04:53;10.90;;;4.73;;
55346;SDS011;41218;55.700;38.270;2023-03-21T19:09:56;11.32;;;4.68;;
55346;SDS011;41218;55.700;38.270;2023-03-21T19:14:57;11.45;;;4.57;;
55346;SDS011;41218;55.700;38.270;2023-03-21T19:19:58;10.63;;;4.83;;
55346;SDS011;41218;55.700;38.270;2023-03-21T19:24:59;13.95;;;5.80;;
55346;SDS011;41218;55.700;38.270;2023-03-21T19:29:59;13.57;;;6.47;;
55346;SDS011;41218;55.700;38.270;2023-03-21T19:35:00;17.70;;;7.63;;
55346;SDS011;41218;55.700;38.270;2023-03-21T19:40:01;17.58;;;8.18;;
55346;SDS011;41218;55.700;38.270;2023-03-21T19:45:04;16.80;;;7.47;;
55346;SDS011;41218;55.700;38.270;2023-03-21T19:50:05;16.65;;;7.10;;
55346;SDS011;41218;55.700;38.270;2023-03-21T19:55:06;23.38;;;10.52;;
55346;SDS011;41218;55.700;38.270;2023-03-21T20:00:07;20.73;;;9.38;;
55346;SDS011;41218;55.700;38.270;2023-03-21T20:05:10;26.38;;;10.60;;
55346;SDS011;41218;55.700;38.270;2023-03-21T20:10:15;24.85;;;10.75;;
55346;SDS011;41218;55.700;38.270;2023-03-21T20:15:16;19.77;;;9.13;;
55346;SDS011;41218;55.700;38.270;2023-03-21T20:20:17;21.90;;;9.27;;
55346;SDS011;41218;55.700;38.270;2023-03-21T20:25:18;19.90;;;8.20;;
55346;SDS011;41218;55.700;38.270;2023-03-21T20:30:20;18.83;;;8.65;;
55346;SDS011;41218;55.700;38.270;2023-03-21T20:35:20;18.97;;;8.57;;
55346;SDS011;41218;55.700;38.270;2023-03-21T20:40:21;20.38;;;8.35;;
55346;SDS011;41218;55.700;38.270;2023-03-21T20:45:23;21.20;;;8.63;;
55346;SDS011;41218;55.700;38.270;2023-03-21T20:50:23;18.90;;;8.83;;
55346;SDS011;41218;55.700;38.270;2023-03-21T20:55:24;17.30;;;8.02;;
55346;SDS011;41218;55.700;38.270;2023-03-21T21:00:25;18.37;;;7.43;;
55346;SDS011;41218;55.700;38.270;2023-03-21T21:05:26;18.65;;;7.60;;
55346;SDS011;41218;55.700;38.270;2023-03-21T21:10:27;14.93;;;7.03;;
55346;SDS011;41218;55.700;38.270;2023-03-21T21:15:27;15.83;;;7.23;;
55346;SDS011;41218;55.700;38.270;2023-03-21T21:20:28;16.23;;;7.03;;
55346;SDS011;41218;55.700;38.270;2023-03-21T21:25:30;17.40;;;7.07;;
55346;SDS011;41218;55.700;38.270;2023-03-21T21:30:34;15.82;;;7.15;;
55346;SDS011;41218;55.700;38.270;2023-03-21T21:35:36;18.52;;;7.28;;
55346;SDS011;41218;55.700;38.270;2023-03-21T21:40:37;18.13;;;7.73;;
55346;SDS011;41218;55.700;38.270;2023-03-21T21:45:38;17.20;;;7.17;;
55346;SDS011;41218;55.700;38.270;2023-03-21T21:50:39;17.98;;;6.97;;
55346;SDS011;41218;55.700;38.270;2023-03-21T21:55:43;14.82;;;6.95;;
55346;SDS011;41218;55.700;38.270;2023-03-21T22:00:47;15.10;;;6.63;;
55346;SDS011;41218;55.700;38.270;2023-03-21T22:05:49;15.20;;;6.90;;
55346;SDS011;41218;55.700;38.270;2023-03-21T22:10:51;13.18;;;6.40;;
55346;SDS011;41218;55.700;38.270;2023-03-21T22:15:51;13.50;;;6.37;;
55346;SDS011;41218;55.700;38.270;2023-03-21T22:20:52;14.33;;;6.17;;
55346;SDS011;41218;55.700;38.270;2023-03-21T22:25:52;14.30;;;6.33;;
55346;SDS011;41218;55.700;38.270;2023-03-21T22:30:53;12.80;;;5.87;;
55346;SDS011;41218;55.700;38.270;2023-03-21T22:35:55;13.45;;;6.18;;
55346;SDS011;41218;55.700;38.270;2023-03-21T22:40:56;15.73;;;6.63;;
55346;SDS011;41218;55.700;38.270;2023-03-21T22:45:57;13.20;;;6.00;;
55346;SDS011;41218;55.700;38.270;2023-03-21T22:50:58;11.18;;;5.90;;
55346;SDS011;41218;55.700;38.270;2023-03-21T22:55:59;13.00;;;6.00;;
55346;SDS011;41218;55.700;38.270;2023-03-21T23:01:00;15.57;;;7.03;;
55346;SDS011;41218;55.700;38.270;2023-03-21T23:06:01;16.95;;;6.35;;
55346;SDS011;41218;55.700;38.270;2023-03-21T23:11:06;13.40;;;5.90;;
55346;SDS011;41218;55.700;38.270;2023-03-21T23:16:07;12.57;;;5.70;;
55346;SDS011;41218;55.700;38.270;2023-03-21T23:21:07;13.65;;;5.75;;
55346;SDS011;41218;55.700;38.270;2023-03-21T23:26:12;14.88;;;6.53;;
55346;SDS011;41218;55.700;38.270;2023-03-21T23:31:13;14.43;;;6.43;;
55346;SDS011;41218;55.700;38.270;2023-03-21T23:36:17;15.05;;;6.32;;
55346;SDS011;41218;55.700;38.270;2023-03-21T23:41:19;14.95;;;5.82;;
55346;SDS011;41218;55.700;38.270;2023-03-21T23:46:22;13.27;;;5.70;;
55346;SDS011;41218;55.700;38.270;2023-03-21T23:51:23;11.33;;;5.20;;
55346;SDS011;41218;55.700;38.270;2023-03-21T23:56:24;12.63;;;6.00;;
